Vassalboro, Maine
Current Conditions -  °F | °C
As of 3:55 PM on Thursday 23 Oct 2014 (Local Time) from KWVL Reporting Station
Overcast Overcast  
Wind Chill: 43°   Ceiling: 1000
Heat Index: 48°   Visibility: 2.5mi
Dew Point: 45°   Wind: 14mph
Humidity: 87%   Direction: 360°N
Pressure: 29.81"   Gusts: NA
Location:  44.46°N, 69.68°W
Report Text: KWVL 231955Z 36012KT 2 1/2SM BKN010 OVC015 09/07 A2981 RMK AO1 P0009
Loading
Personal Weather Stations






























Interactive Weather Map
Tropical Storm Tracking
New forecast layout! Learn more

10-Day Weather Forecast

Advertisements
Track Severe Weather on mobile